sensor_id;sensor_type;location;lat;lon;timestamp;pressure;altitude;pressure_sealevel;temperature;humidity
6514;BME280;3290;47.716;9.070;2023-02-04T00:01:34;98348.75;;;8.02;96.33
6514;BME280;3290;47.716;9.070;2023-02-04T00:03:59;98356.59;;;8.02;97.06
6514;BME280;3290;47.716;9.070;2023-02-04T00:06:25;98352.97;;;8.03;96.47
6514;BME280;3290;47.716;9.070;2023-02-04T00:08:51;98355.63;;;8.27;96.49
6514;BME280;3290;47.716;9.070;2023-02-04T00:11:16;98355.13;;;8.07;97.68
6514;BME280;3290;47.716;9.070;2023-02-04T00:13:42;98349.41;;;8.04;97.12
6514;BME280;3290;47.716;9.070;2023-02-04T00:16:07;98348.59;;;8.11;97.89
6514;BME280;3290;47.716;9.070;2023-02-04T00:18:32;98341.56;;;7.96;98.52
6514;BME280;3290;47.716;9.070;2023-02-04T00:20:58;98338.81;;;8.13;98.39
6514;BME280;3290;47.716;9.070;2023-02-04T00:23:23;98332.16;;;8.11;98.33
6514;BME280;3290;47.716;9.070;2023-02-04T00:25:48;98344.84;;;7.98;98.49
6514;BME280;3290;47.716;9.070;2023-02-04T00:28:14;98338.00;;;8.13;98.19
6514;BME280;3290;47.716;9.070;2023-02-04T00:30:39;98343.53;;;7.94;99.22
6514;BME280;3290;47.716;9.070;2023-02-04T00:33:04;98344.84;;;7.98;99.17
6514;BME280;3290;47.716;9.070;2023-02-04T00:35:30;98345.00;;;8.04;99.38
6514;BME280;3290;47.716;9.070;2023-02-04T00:37:55;98354.00;;;8.10;98.64
6514;BME280;3290;47.716;9.070;2023-02-04T00:40:20;98356.25;;;7.97;99.80
6514;BME280;3290;47.716;9.070;2023-02-04T00:42:46;98357.88;;;7.90;99.17
6514;BME280;3290;47.716;9.070;2023-02-04T00:45:11;98360.66;;;8.04;99.69
6514;BME280;3290;47.716;9.070;2023-02-04T00:47:37;98362.28;;;7.97;99.52
6514;BME280;3290;47.716;9.070;2023-02-04T00:50:03;98359.03;;;8.03;98.76
6514;BME280;3290;47.716;9.070;2023-02-04T00:52:28;98355.59;;;8.03;98.91
6514;BME280;3290;47.716;9.070;2023-02-04T00:54:54;98354.31;;;8.07;98.41
6514;BME280;3290;47.716;9.070;2023-02-04T00:57:19;98358.69;;;7.91;99.91
6514;BME280;3290;47.716;9.070;2023-02-04T00:59:44;98352.19;;;7.87;99.87
6514;BME280;3290;47.716;9.070;2023-02-04T01:02:10;98357.56;;;7.77;99.33
6514;BME280;3290;47.716;9.070;2023-02-04T01:04:35;98355.28;;;7.98;98.54
6514;BME280;3290;47.716;9.070;2023-02-04T01:07:00;98347.59;;;7.89;98.49
6514;BME280;3290;47.716;9.070;2023-02-04T01:09:26;98357.88;;;7.90;97.54
6514;BME280;3290;47.716;9.070;2023-02-04T01:11:51;98365.06;;;8.04;97.82
6514;BME280;3290;47.716;9.070;2023-02-04T01:14:17;98372.41;;;8.08;97.15
6514;BME280;3290;47.716;9.070;2023-02-04T01:16:42;98373.84;;;8.03;97.03
6514;BME280;3290;47.716;9.070;2023-02-04T01:19:07;98364.28;;;8.19;95.51
6514;BME280;3290;47.716;9.070;2023-02-04T01:21:33;98362.13;;;8.07;96.53
6514;BME280;3290;47.716;9.070;2023-02-04T01:23:58;98368.97;;;7.84;96.24
6514;BME280;3290;47.716;9.070;2023-02-04T01:26:24;98369.78;;;7.85;97.05
6514;BME280;3290;47.716;9.070;2023-02-04T01:28:49;98371.88;;;7.89;96.37
6514;BME280;3290;47.716;9.070;2023-02-04T01:31:15;98372.72;;;7.90;97.07
6514;BME280;3290;47.716;9.070;2023-02-04T01:33:41;98375.16;;;7.75;97.31
6514;BME280;3290;47.716;9.070;2023-02-04T01:36:07;98372.22;;;7.70;96.73
6514;BME280;3290;47.716;9.070;2023-02-04T01:38:32;98362.09;;;7.67;97.68
6514;BME280;3290;47.716;9.070;2023-02-04T01:40:58;98356.72;;;7.77;97.86
6514;BME280;3290;47.716;9.070;2023-02-04T01:43:23;98364.53;;;7.53;98.02
6514;BME280;3290;47.716;9.070;2023-02-04T01:45:50;98358.34;;;7.70;98.54
6514;BME280;3290;47.716;9.070;2023-02-04T01:48:16;98367.81;;;7.63;99.44
6514;BME280;3290;47.716;9.070;2023-02-04T01:50:46;98352.66;;;7.74;98.36
6514;BME280;3290;47.716;9.070;2023-02-04T01:53:12;98358.53;;;7.68;98.56
6514;BME280;3290;47.716;9.070;2023-02-04T01:55:37;98359.69;;;7.90;98.18
6514;BME280;3290;47.716;9.070;2023-02-04T01:58:02;98365.22;;;7.79;98.64
6514;BME280;3290;47.716;9.070;2023-02-04T02:00:30;98350.06;;;7.66;98.48
6514;BME280;3290;47.716;9.070;2023-02-04T02:02:57;98357.88;;;7.74;99.71
6514;BME280;3290;47.716;9.070;2023-02-04T02:05:26;98362.09;;;7.67;98.37
6514;BME280;3290;47.716;9.070;2023-02-04T02:07:55;98367.16;;;7.77;98.00
6514;BME280;3290;47.716;9.070;2023-02-04T02:10:22;98359.84;;;7.72;98.00
6514;BME280;3290;47.716;9.070;2023-02-04T02:12:48;98369.47;;;7.88;97.43
6514;BME280;3290;47.716;9.070;2023-02-04T02:15:15;98367.84;;;7.79;98.43
6514;BME280;3290;47.716;9.070;2023-02-04T02:17:41;98364.75;;;7.91;97.88
6514;BME280;3290;47.716;9.070;2023-02-04T02:20:08;98363.28;;;7.81;98.76
6514;BME280;3290;47.716;9.070;2023-02-04T02:25:13;98353.31;;;7.84;97.48
6514;BME280;3290;47.716;9.070;2023-02-04T02:27:39;98350.88;;;7.83;98.01
6514;BME280;3290;47.716;9.070;2023-02-04T02:30:07;98354.31;;;7.75;98.07
6514;BME280;3290;47.716;9.070;2023-02-04T02:32:34;98364.41;;;7.94;97.73
6514;BME280;3290;47.716;9.070;2023-02-04T02:34:59;98359.84;;;7.72;98.82
6514;BME280;3290;47.716;9.070;2023-02-04T02:37:25;98355.94;;;7.84;97.92
6514;BME280;3290;47.716;9.070;2023-02-04T02:39:50;98355.28;;;7.66;99.51
6514;BME280;3290;47.716;9.070;2023-02-04T02:42:17;98360.66;;;7.89;98.55
6514;BME280;3290;47.716;9.070;2023-02-04T02:44:44;98377.44;;;7.70;99.91
6514;BME280;3290;47.716;9.070;2023-02-04T02:47:15;98371.22;;;7.71;99.63
6514;BME280;3290;47.716;9.070;2023-02-04T02:49:42;98384.63;;;7.92;98.54
6514;BME280;3290;47.716;9.070;2023-02-04T02:52:10;98368.81;;;7.78;99.44
6514;BME280;3290;47.716;9.070;2023-02-04T02:54:36;98374.66;;;7.80;98.53
6514;BME280;3290;47.716;9.070;2023-02-04T02:57:02;98375.00;;;8.00;98.11
6514;BME280;3290;47.716;9.070;2023-02-04T02:59:27;98364.88;;;7.97;97.88
6514;BME280;3290;47.716;9.070;2023-02-04T03:01:59;98368.31;;;7.66;98.71
6514;BME280;3290;47.716;9.070;2023-02-04T03:04:27;98365.53;;;7.76;98.28
6514;BME280;3290;47.716;9.070;2023-02-04T03:06:54;98366.69;;;7.81;98.69
6514;BME280;3290;47.716;9.070;2023-02-04T03:09:20;98360.78;;;7.71;99.42
6514;BME280;3290;47.716;9.070;2023-02-04T03:11:47;98363.75;;;7.76;98.04
6514;BME280;3290;47.716;9.070;2023-02-04T03:14:13;98362.75;;;7.69;98.81
6514;BME280;3290;47.716;9.070;2023-02-04T03:16:38;98359.84;;;7.72;98.38
6514;BME280;3290;47.716;9.070;2023-02-04T03:19:05;98362.63;;;7.79;98.40
6514;BME280;3290;47.716;9.070;2023-02-04T03:21:31;98359.19;;;7.86;98.05
6514;BME280;3290;47.716;9.070;2023-02-04T03:23:57;98375.00;;;7.85;98.86
6514;BME280;3290;47.716;9.070;2023-02-04T03:26:24;98378.06;;;7.64;100.00
6514;BME280;3290;47.716;9.070;2023-02-04T03:28:49;98369.75;;;7.77;99.73
6514;BME280;3290;47.716;9.070;2023-02-04T03:31:15;98365.72;;;7.66;98.69
6514;BME280;3290;47.716;9.070;2023-02-04T03:33:40;98363.59;;;7.86;98.05
6514;BME280;3290;47.716;9.070;2023-02-04T03:36:07;98367.81;;;7.87;98.36
6514;BME280;3290;47.716;9.070;2023-02-04T03:38:32;98364.38;;;7.78;98.89
6514;BME280;3290;47.716;9.070;2023-02-04T03:40:58;98369.47;;;7.72;99.49
6514;BME280;3290;47.716;9.070;2023-02-04T03:43:23;98373.84;;;7.87;99.06
6514;BME280;3290;47.716;9.070;2023-02-04T03:45:49;98375.44;;;7.64;99.91
6514;BME280;3290;47.716;9.070;2023-02-04T03:48:14;98375.81;;;7.77;99.72
6514;BME280;3290;47.716;9.070;2023-02-04T03:50:40;98369.13;;;7.91;99.47
6514;BME280;3290;47.716;9.070;2023-02-04T03:53:05;98380.19;;;7.69;100.00
6514;BME280;3290;47.716;9.070;2023-02-04T03:55:31;98371.56;;;7.76;99.39
6514;BME280;3290;47.716;9.070;2023-02-04T03:57:57;98371.25;;;7.95;98.91
6514;BME280;3290;47.716;9.070;2023-02-04T04:00:22;98364.72;;;7.83;100.00
6514;BME280;3290;47.716;9.070;2023-02-04T04:02:48;98379.91;;;8.03;99.38
6514;BME280;3290;47.716;9.070;2023-02-04T04:05:13;98375.69;;;7.95;100.00
6514;BME280;3290;47.716;9.070;2023-02-04T04:07:38;98369.66;;;8.10;100.00
6514;BME280;3290;47.716;9.070;2023-02-04T04:10:04;98367.84;;;7.95;100.00
6514;BME280;3290;47.716;9.070;2023-02-04T04:12:29;98368.47;;;7.89;100.00
6514;BME280;3290;47.716;9.070;2023-02-04T04:14:55;98369.94;;;7.75;100.00
6514;BME280;3290;47.716;9.070;2023-02-04T04:17:20;98369.28;;;7.81;100.00
6514;BME280;3290;47.716;9.070;2023-02-04T04:19:45;98369.59;;;7.78;100.00
6514;BME280;3290;47.716;9.070;2023-02-04T04:22:11;98372.22;;;7.70;100.00
6514;BME280;3290;47.716;9.070;2023-02-04T04:24:36;98369.94;;;7.59;100.00
6514;BME280;3290;47.716;9.070;2023-02-04T04:27:01;98368.31;;;7.66;100.00
6514;BME280;3290;47.716;9.070;2023-02-04T04:29:27;98374.97;;;7.77;100.00
6514;BME280;3290;47.716;9.070;2023-02-04T04:31:52;98378.75;;;7.74;100.00
6514;BME280;3290;47.716;9.070;2023-02-04T04:34:18;98377.13;;;7.89;100.00
6514;BME280;3290;47.716;9.070;2023-02-04T04:36:43;98384.63;;;7.84;100.00
6514;BME280;3290;47.716;9.070;2023-02-04T04:39:08;98382.53;;;7.88;100.00
6514;BME280;3290;47.716;9.070;2023-02-04T04:41:34;98386.75;;;7.89;100.00
6514;BME280;3290;47.716;9.070;2023-02-04T04:43:59;98382.81;;;7.93;100.00
6514;BME280;3290;47.716;9.070;2023-02-04T04:46:24;98379.41;;;7.92;100.00
6514;BME280;3290;47.716;9.070;2023-02-04T04:48:49;98386.91;;;7.79;100.00
6514;BME280;3290;47.716;9.070;2023-02-04T04:51:15;98391.31;;;7.79;100.00
6514;BME280;3290;47.716;9.070;2023-02-04T04:53:40;98391.47;;;7.85;100.00
6514;BME280;3290;47.716;9.070;2023-02-04T04:56:05;98390.19;;;8.05;100.00
6514;BME280;3290;47.716;9.070;2023-02-04T04:58:31;98387.59;;;8.29;100.00
6514;BME280;3290;47.716;9.070;2023-02-04T05:00:56;98383.69;;;8.25;100.00
6514;BME280;3290;47.716;9.070;2023-02-04T05:03:22;98384.34;;;8.27;100.00
6514;BME280;3290;47.716;9.070;2023-02-04T05:05:47;98383.69;;;8.25;100.00
6514;BME280;3290;47.716;9.070;2023-02-04T05:08:12;98386.44;;;8.07;100.00
6514;BME280;3290;47.716;9.070;2023-02-04T05:10:41;98385.31;;;8.18;100.00
6514;BME280;3290;47.716;9.070;2023-02-04T05:13:07;98380.56;;;8.13;100.00
6514;BME280;3290;47.716;9.070;2023-02-04T05:15:32;98383.34;;;8.20;100.00
6514;BME280;3290;47.716;9.070;2023-02-04T05:17:58;98388.88;;;8.09;100.00
6514;BME280;3290;47.716;9.070;2023-02-04T05:20:23;98399.63;;;8.06;100.00
6514;BME280;3290;47.716;9.070;2023-02-04T05:22:49;98404.53;;;8.09;100.00
6514;BME280;3290;47.716;9.070;2023-02-04T05:25:14;98401.44;;;7.90;100.00
6514;BME280;3290;47.716;9.070;2023-02-04T05:27:41;98404.53;;;8.01;100.00
6514;BME280;3290;47.716;9.070;2023-02-04T05:30:09;98401.91;;;8.01;100.00
6514;BME280;3290;47.716;9.070;2023-02-04T05:32:35;98406.50;;;8.07;100.00
6514;BME280;3290;47.716;9.070;2023-02-04T05:35:00;98405.34;;;8.09;100.00
6514;BME280;3290;47.716;9.070;2023-02-04T05:37:26;98410.38;;;8.03;100.00
6514;BME280;3290;47.716;9.070;2023-02-04T05:39:52;98409.44;;;8.12;100.00
6514;BME280;3290;47.716;9.070;2023-02-04T05:42:17;98406.16;;;8.02;100.00
6514;BME280;3290;47.716;9.070;2023-02-04T05:44:42;98414.31;;;7.99;100.00
6514;BME280;3290;47.716;9.070;2023-02-04T05:47:08;98418.91;;;8.05;100.00
6514;BME280;3290;47.716;9.070;2023-02-04T05:49:33;98419.41;;;8.08;100.00
6514;BME280;3290;47.716;9.070;2023-02-04T05:51:58;98412.06;;;8.12;100.00
6514;BME280;3290;47.716;9.070;2023-02-04T05:54:24;98418.91;;;8.05;100.00
6514;BME280;3290;47.716;9.070;2023-02-04T05:56:50;98421.22;;;8.16;100.00
6514;BME280;3290;47.716;9.070;2023-02-04T05:59:16;98426.44;;;8.16;100.00
6514;BME280;3290;47.716;9.070;2023-02-04T06:01:41;98428.06;;;8.25;100.00
6514;BME280;3290;47.716;9.070;2023-02-04T06:04:07;98431.00;;;8.22;100.00
6514;BME280;3290;47.716;9.070;2023-02-04T06:06:32;98429.81;;;8.00;100.00
6514;BME280;3290;47.716;9.070;2023-02-04T06:08:57;98426.69;;;7.81;100.00
6514;BME280;3290;47.716;9.070;2023-02-04T06:11:23;98427.53;;;7.90;100.00
6514;BME280;3290;47.716;9.070;2023-02-04T06:13:48;98424.25;;;7.96;100.00
6514;BME280;3290;47.716;9.070;2023-02-04T06:16:13;98429.97;;;7.91;100.00
6514;BME280;3290;47.716;9.070;2023-02-04T06:18:39;98439.25;;;7.86;100.00
6514;BME280;3290;47.716;9.070;2023-02-04T06:21:04;98437.81;;;7.91;100.00
6514;BME280;3290;47.716;9.070;2023-02-04T06:23:30;98443.34;;;8.04;100.00
6514;BME280;3290;47.716;9.070;2023-02-04T06:25:58;98436.84;;;8.00;100.00
6514;BME280;3290;47.716;9.070;2023-02-04T06:28:23;98443.03;;;8.07;100.00
6514;BME280;3290;47.716;9.070;2023-02-04T06:30:48;98441.59;;;8.12;100.00
6514;BME280;3290;47.716;9.070;2023-02-04T06:33:14;98436.34;;;7.97;100.00
6514;BME280;3290;47.716;9.070;2023-02-04T06:35:39;98429.97;;;7.91;100.00
6514;BME280;3290;47.716;9.070;2023-02-04T06:38:04;98431.25;;;7.87;100.00
6514;BME280;3290;47.716;9.070;2023-02-04T06:40:30;98430.47;;;8.02;100.00
6514;BME280;3290;47.716;9.070;2023-02-04T06:42:55;98431.31;;;8.11;100.00
6514;BME280;3290;47.716;9.070;2023-02-04T06:45:20;98444.06;;;8.14;100.00
6514;BME280;3290;47.716;9.070;2023-02-04T06:47:46;98452.50;;;8.00;100.00
6514;BME280;3290;47.716;9.070;2023-02-04T06:50:11;98463.84;;;7.75;100.00
6514;BME280;3290;47.716;9.070;2023-02-04T06:52:36;98469.41;;;7.96;100.00
6514;BME280;3290;47.716;9.070;2023-02-04T06:55:02;98462.56;;;7.87;100.00
6514;BME280;3290;47.716;9.070;2023-02-04T06:57:27;98466.69;;;8.05;100.00
6514;BME280;3290;47.716;9.070;2023-02-04T06:59:53;98467.00;;;8.02;100.00
6514;BME280;3290;47.716;9.070;2023-02-04T07:02:18;98468.16;;;8.08;100.00
6514;BME280;3290;47.716;9.070;2023-02-04T07:04:44;98463.91;;;8.07;100.00
6514;BME280;3290;47.716;9.070;2023-02-04T07:07:10;98467.50;;;7.98;100.00
6514;BME280;3290;47.716;9.070;2023-02-04T07:09:35;98465.19;;;7.95;100.00
6514;BME280;3290;47.716;9.070;2023-02-04T07:12:01;98466.00;;;7.96;100.00
6514;BME280;3290;47.716;9.070;2023-02-04T07:14:27;98468.13;;;7.92;100.00
6514;BME280;3290;47.716;9.070;2023-02-04T07:16:52;98469.44;;;8.04;100.00
6514;BME280;3290;47.716;9.070;2023-02-04T07:19:17;98468.50;;;8.13;100.00
6514;BME280;3290;47.716;9.070;2023-02-04T07:21:43;98470.47;;;8.11;100.00
6514;BME280;3290;47.716;9.070;2023-02-04T07:24:08;98472.09;;;8.12;100.00
6514;BME280;3290;47.716;9.070;2023-02-04T07:26:33;98481.91;;;8.18;100.00
6514;BME280;3290;47.716;9.070;2023-02-04T07:28:59;98486.13;;;8.11;100.00
6514;BME280;3290;47.716;9.070;2023-02-04T07:31:24;98490.69;;;8.17;100.00
6514;BME280;3290;47.716;9.070;2023-02-04T07:33:50;98487.94;;;8.34;100.00
6514;BME280;3290;47.716;9.070;2023-02-04T07:36:15;98485.00;;;8.29;100.00
6514;BME280;3290;47.716;9.070;2023-02-04T07:38:40;98491.72;;;8.32;100.00
6514;BME280;3290;47.716;9.070;2023-02-04T07:41:06;98492.84;;;8.37;100.00
6514;BME280;3290;47.716;9.070;2023-02-04T07:43:31;98496.59;;;8.42;100.00
6514;BME280;3290;47.716;9.070;2023-02-04T07:45:56;98497.41;;;8.43;100.00
6514;BME280;3290;47.716;9.070;2023-02-04T07:48:22;98504.94;;;8.46;100.00
6514;BME280;3290;47.716;9.070;2023-02-04T07:50:47;98501.16;;;8.64;100.00
6514;BME280;3290;47.716;9.070;2023-02-04T07:53:13;98503.97;;;8.47;100.00
6514;BME280;3290;47.716;9.070;2023-02-04T07:55:38;98510.31;;;8.60;100.00
6514;BME280;3290;47.716;9.070;2023-02-04T07:58:04;98514.91;;;8.66;100.00
6514;BME280;3290;47.716;9.070;2023-02-04T08:00:29;98508.34;;;8.62;100.00
6514;BME280;3290;47.716;9.070;2023-02-04T08:02:55;98515.38;;;8.54;100.00
6514;BME280;3290;47.716;9.070;2023-02-04T08:05:20;98517.34;;;8.52;100.00
6514;BME280;3290;47.716;9.070;2023-02-04T08:07:45;98517.19;;;8.61;100.00
6514;BME280;3290;47.716;9.070;2023-02-04T08:10:11;98525.66;;;8.55;100.00
6514;BME280;3290;47.716;9.070;2023-02-04T08:12:37;98529.59;;;8.75;100.00
6514;BME280;3290;47.716;9.070;2023-02-04T08:15:03;98531.72;;;8.56;100.00
6514;BME280;3290;47.716;9.070;2023-02-04T08:17:28;98531.88;;;8.54;100.00
6514;BME280;3290;47.716;9.070;2023-02-04T08:19:54;98530.53;;;8.50;100.00
6514;BME280;3290;47.716;9.070;2023-02-04T08:22:20;98524.66;;;8.48;100.00
6514;BME280;3290;47.716;9.070;2023-02-04T08:24:46;98533.00;;;8.52;100.00
6514;BME280;3290;47.716;9.070;2023-02-04T08:27:11;98533.50;;;8.63;100.00
6514;BME280;3290;47.716;9.070;2023-02-04T08:29:37;98532.03;;;8.53;100.00
6514;BME280;3290;47.716;9.070;2023-02-04T08:32:02;98539.69;;;8.62;100.00
6514;BME280;3290;47.716;9.070;2023-02-04T08:34:28;98529.28;;;8.70;100.00
6514;BME280;3290;47.716;9.070;2023-02-04T08:36:54;98535.63;;;8.68;100.00
6514;BME280;3290;47.716;9.070;2023-02-04T08:39:19;98537.75;;;8.64;100.00
6514;BME280;3290;47.716;9.070;2023-02-04T08:41:44;98549.84;;;8.89;100.00
6514;BME280;3290;47.716;9.070;2023-02-04T08:44:10;98549.66;;;8.90;100.00
6514;BME280;3290;47.716;9.070;2023-02-04T08:46:35;98557.50;;;9.06;100.00
6514;BME280;3290;47.716;9.070;2023-02-04T08:49:01;98555.06;;;8.97;100.00
6514;BME280;3290;47.716;9.070;2023-02-04T08:51:26;98551.47;;;8.74;100.00
6514;BME280;3290;47.716;9.070;2023-02-04T08:53:51;98548.19;;;8.48;100.00
6514;BME280;3290;47.716;9.070;2023-02-04T08:56:17;98551.78;;;8.47;100.00
6514;BME280;3290;47.716;9.070;2023-02-04T08:58:45;98555.38;;;8.38;100.00
6514;BME280;3290;47.716;9.070;2023-02-04T09:01:10;98556.50;;;8.28;100.00
6514;BME280;3290;47.716;9.070;2023-02-04T09:03:36;98551.91;;;8.38;100.00
6514;BME280;3290;47.716;9.070;2023-02-04T09:06:02;98549.66;;;8.35;100.00
6514;BME280;3290;47.716;9.070;2023-02-04T09:08:28;98548.00;;;8.34;100.00
6514;BME280;3290;47.716;9.070;2023-02-04T09:10:53;98551.75;;;8.39;100.00
6514;BME280;3290;47.716;9.070;2023-02-04T09:13:18;98561.25;;;8.40;100.00
6514;BME280;3290;47.716;9.070;2023-02-04T09:15:44;98565.81;;;8.38;100.00
6514;BME280;3290;47.716;9.070;2023-02-04T09:18:09;98557.66;;;8.57;100.00
6514;BME280;3290;47.716;9.070;2023-02-04T09:20:45;98554.72;;;8.44;100.00
6514;BME280;3290;47.716;9.070;2023-02-04T09:23:11;98567.78;;;8.52;100.00
6514;BME280;3290;47.716;9.070;2023-02-04T09:25:38;98565.69;;;8.56;100.00
6514;BME280;3290;47.716;9.070;2023-02-04T09:28:04;98577.59;;;8.58;100.00
6514;BME280;3290;47.716;9.070;2023-02-04T09:30:29;98575.97;;;8.65;100.00
6514;BME280;3290;47.716;9.070;2023-02-04T09:32:55;98585.41;;;8.58;100.00
6514;BME280;3290;47.716;9.070;2023-02-04T09:35:20;98580.34;;;8.49;100.00
6514;BME280;3290;47.716;9.070;2023-02-04T09:37:46;98575.66;;;8.68;100.00
6514;BME280;3290;47.716;9.070;2023-02-04T09:40:15;98582.66;;;8.76;100.00
6514;BME280;3290;47.716;9.070;2023-02-04T09:42:43;98580.88;;;8.68;100.00
6514;BME280;3290;47.716;9.070;2023-02-04T09:45:17;98586.59;;;8.72;100.00
6514;BME280;3290;47.716;9.070;2023-02-04T09:47:42;98582.19;;;8.72;100.00
6514;BME280;3290;47.716;9.070;2023-02-04T09:50:16;98589.38;;;8.86;100.00
6514;BME280;3290;47.716;9.070;2023-02-04T09:52:43;98585.13;;;8.77;100.00
6514;BME280;3290;47.716;9.070;2023-02-04T09:55:14;98576.47;;;8.84;100.00
6514;BME280;3290;47.716;9.070;2023-02-04T09:57:40;98584.28;;;8.77;100.00
6514;BME280;3290;47.716;9.070;2023-02-04T10:00:20;98582.66;;;8.76;100.00
6514;BME280;3290;47.716;9.070;2023-02-04T10:02:47;98589.66;;;8.67;100.00
6514;BME280;3290;47.716;9.070;2023-02-04T10:05:18;98586.09;;;8.68;100.00
6514;BME280;3290;47.716;9.070;2023-02-04T10:07:44;98590.97;;;8.71;100.00
6514;BME280;3290;47.716;9.070;2023-02-04T10:10:16;98596.88;;;8.81;100.00
6514;BME280;3290;47.716;9.070;2023-02-04T10:12:43;98599.50;;;8.81;100.00
6514;BME280;3290;47.716;9.070;2023-02-04T10:15:13;98610.94;;;8.88;100.00
6514;BME280;3290;47.716;9.070;2023-02-04T10:17:39;98604.72;;;8.97;100.00
6514;BME280;3290;47.716;9.070;2023-02-04T10:20:10;98607.97;;;8.99;100.00
6514;BME280;3290;47.716;9.070;2023-02-04T10:22:37;98603.56;;;9.07;100.00
6514;BME280;3290;47.716;9.070;2023-02-04T10:25:10;98602.28;;;9.03;100.00
6514;BME280;3290;47.716;9.070;2023-02-04T10:27:55;98604.72;;;9.05;100.00
6514;BME280;3290;47.716;9.070;2023-02-04T10:30:30;98597.22;;;8.86;100.00
6514;BME280;3290;47.716;9.070;2023-02-04T10:33:11;98597.84;;;9.19;100.00
6514;BME280;3290;47.716;9.070;2023-02-04T10:35:47;98592.94;;;9.17;100.00
6514;BME280;3290;47.716;9.070;2023-02-04T10:38:14;98600.16;;;9.22;100.00
6514;BME280;3290;47.716;9.070;2023-02-04T10:40:39;98592.09;;;9.48;100.00
6514;BME280;3290;47.716;9.070;2023-02-04T10:43:19;98590.78;;;9.36;100.00
6514;BME280;3290;47.716;9.070;2023-02-04T10:45:47;98589.81;;;9.37;100.00
6514;BME280;3290;47.716;9.070;2023-02-04T10:48:18;98588.94;;;9.60;100.00
6514;BME280;3290;47.716;9.070;2023-02-04T10:50:48;98593.78;;;9.17;100.00
6514;BME280;3290;47.716;9.070;2023-02-04T10:53:22;98590.38;;;9.70;99.79
6514;BME280;3290;47.716;9.070;2023-02-04T10:56:20;98589.69;;;9.76;99.42
6514;BME280;3290;47.716;9.070;2023-02-04T10:58:46;98583.00;;;10.28;99.09
6514;BME280;3290;47.716;9.070;2023-02-04T11:01:14;98582.75;;;10.37;93.30
6514;BME280;3290;47.716;9.070;2023-02-04T11:03:40;98580.78;;;10.39;94.71
6514;BME280;3290;47.716;9.070;2023-02-04T11:06:19;98567.50;;;10.40;95.01
6514;BME280;3290;47.716;9.070;2023-02-04T11:08:46;98575.38;;;11.07;93.63
6514;BME280;3290;47.716;9.070;2023-02-04T11:18:54;98565.88;;;13.66;75.69
6514;BME280;3290;47.716;9.070;2023-02-04T11:21:40;98562.16;;;15.06;68.90
6514;BME280;3290;47.716;9.070;2023-02-04T11:29:21;98576.94;;;13.28;74.19
6514;BME280;3290;47.716;9.070;2023-02-04T11:39:36;98571.31;;;11.19;85.92
6514;BME280;3290;47.716;9.070;2023-02-04T11:42:03;98578.75;;;10.93;85.65
6514;BME280;3290;47.716;9.070;2023-02-04T11:44:29;98579.34;;;11.03;86.99
6514;BME280;3290;47.716;9.070;2023-02-04T11:46:55;98570.38;;;10.76;87.99
6514;BME280;3290;47.716;9.070;2023-02-04T11:49:24;98573.19;;;10.52;90.80
6514;BME280;3290;47.716;9.070;2023-02-04T11:51:50;98572.31;;;10.59;89.04
6514;BME280;3290;47.716;9.070;2023-02-04T11:54:17;98575.91;;;10.36;91.10
6514;BME280;3290;47.716;9.070;2023-02-04T11:56:46;98574.38;;;10.64;90.35
6514;BME280;3290;47.716;9.070;2023-02-04T11:59:13;98580.94;;;10.68;91.19
6514;BME280;3290;47.716;9.070;2023-02-04T12:01:39;98572.69;;;10.18;90.71
6514;BME280;3290;47.716;9.070;2023-02-04T12:04:07;98569.59;;;10.23;90.75
6514;BME280;3290;47.716;9.070;2023-02-04T12:06:55;98583.97;;;10.27;90.95
6514;BME280;3290;47.716;9.070;2023-02-04T12:11:58;98567.97;;;10.44;90.09
6514;BME280;3290;47.716;9.070;2023-02-04T12:14:41;98559.81;;;10.39;88.66
6514;BME280;3290;47.716;9.070;2023-02-04T12:17:18;98569.72;;;10.29;88.83
6514;BME280;3290;47.716;9.070;2023-02-04T12:19:44;98563.56;;;10.14;91.53
6514;BME280;3290;47.716;9.070;2023-02-04T12:22:09;98567.44;;;10.26;90.02
6514;BME280;3290;47.716;9.070;2023-02-04T12:24:34;98565.22;;;10.38;89.16
6514;BME280;3290;47.716;9.070;2023-02-04T12:27:00;98567.06;;;9.99;90.34
6514;BME280;3290;47.716;9.070;2023-02-04T12:29:25;98562.94;;;10.12;91.06
6514;BME280;3290;47.716;9.070;2023-02-04T12:31:51;98568.63;;;10.24;90.86
6514;BME280;3290;47.716;9.070;2023-02-04T12:34:16;98568.06;;;10.28;88.64
6514;BME280;3290;47.716;9.070;2023-02-04T12:36:42;98570.06;;;10.26;90.74
6514;BME280;3290;47.716;9.070;2023-02-04T12:39:08;98578.03;;;10.02;87.76
6514;BME280;3290;47.716;9.070;2023-02-04T12:41:35;98576.09;;;9.97;90.09
6514;BME280;3290;47.716;9.070;2023-02-04T12:44:00;98570.69;;;9.98;90.17
6514;BME280;3290;47.716;9.070;2023-02-04T12:46:27;98574.81;;;10.23;91.95
6514;BME280;3290;47.716;9.070;2023-02-04T12:48:53;98574.50;;;10.48;89.37
6514;BME280;3290;47.716;9.070;2023-02-04T12:51:18;98577.59;;;10.21;89.42
6514;BME280;3290;47.716;9.070;2023-02-04T12:53:45;98578.88;;;10.25;88.27
6514;BME280;3290;47.716;9.070;2023-02-04T12:56:12;98579.50;;;10.35;88.20
6514;BME280;3290;47.716;9.070;2023-02-04T12:58:38;98581.00;;;10.30;88.34
6514;BME280;3290;47.716;9.070;2023-02-04T13:01:03;98584.88;;;10.41;86.46
6514;BME280;3290;47.716;9.070;2023-02-04T13:03:28;98584.75;;;10.35;87.66
6514;BME280;3290;47.716;9.070;2023-02-04T13:05:54;98592.28;;;10.30;87.57
6514;BME280;3290;47.716;9.070;2023-02-04T13:08:20;98596.50;;;10.39;87.45
6514;BME280;3290;47.716;9.070;2023-02-04T13:10:45;98598.06;;;10.48;85.59
6514;BME280;3290;47.716;9.070;2023-02-04T13:13:18;98586.16;;;10.45;86.02
6514;BME280;3290;47.716;9.070;2023-02-04T13:15:44;98598.81;;;10.34;86.01
6514;BME280;3290;47.716;9.070;2023-02-04T13:18:09;98589.28;;;10.41;86.73
6514;BME280;3290;47.716;9.070;2023-02-04T13:20:35;98598.56;;;10.21;88.06
6514;BME280;3290;47.716;9.070;2023-02-04T13:23:00;98593.72;;;10.40;87.40
6514;BME280;3290;47.716;9.070;2023-02-04T13:25:25;98597.13;;;10.71;84.90
6514;BME280;3290;47.716;9.070;2023-02-04T13:27:51;98594.56;;;10.85;82.02
6514;BME280;3290;47.716;9.070;2023-02-04T13:30:17;98595.78;;;10.97;82.70
6514;BME280;3290;47.716;9.070;2023-02-04T13:32:42;98595.06;;;10.81;82.53
6514;BME280;3290;47.716;9.070;2023-02-04T13:35:08;98602.38;;;11.66;78.05
6514;BME280;3290;47.716;9.070;2023-02-04T13:37:33;98604.72;;;11.25;78.45
6514;BME280;3290;47.716;9.070;2023-02-04T13:39:58;98598.16;;;11.07;80.43
6514;BME280;3290;47.716;9.070;2023-02-04T13:42:24;98609.63;;;11.06;78.41
6514;BME280;3290;47.716;9.070;2023-02-04T13:44:49;98614.53;;;10.86;79.49
6514;BME280;3290;47.716;9.070;2023-02-04T13:47:14;98619.31;;;10.83;80.04